Porto Esperanca, Brazil
Current Conditions -  °F | °C
As of 10:00 AM on Thursday 18 Dec 2014 (Local Time) from SBCR Reporting Station
Broken Clouds Broken Clouds  
Wind Chill: 81°   Ceiling: 8000
Heat Index: 85°   Visibility: 6mi
Dew Point: 73°   Wind: 2mph
Humidity: 79%   Direction: 210°SSW
Pressure: 29.85"   Gusts: NA
Location:  19.62°S, 57.45°W
Report Text: SBCR 181300Z 21002KT 9999 SCT015 BKN080 27/23 Q1011
Loading
Personal Weather Stations






























Interactive Weather Map New forecast layout! Learn more

10-Day Weather Forecast

Advertisements
Track Severe Weather on mobile